sensor_id;sensor_type;location;lat;lon;timestamp;P1;durP1;ratioP1;P2;durP2;ratioP2
72132;SDS011;60008;50.826;6.896;2023-12-20T00:00:21;5.95;;;3.20;;
72132;SDS011;60008;50.826;6.896;2023-12-20T00:03:06;6.00;;;2.90;;
72132;SDS011;60008;50.826;6.896;2023-12-20T00:05:59;5.80;;;2.72;;
72132;SDS011;60008;50.826;6.896;2023-12-20T00:08:45;7.85;;;3.05;;
72132;SDS011;60008;50.826;6.896;2023-12-20T00:11:30;5.70;;;3.30;;
72132;SDS011;60008;50.826;6.896;2023-12-20T00:14:18;6.40;;;2.88;;
72132;SDS011;60008;50.826;6.896;2023-12-20T00:17:03;5.53;;;3.08;;
72132;SDS011;60008;50.826;6.896;2023-12-20T00:19:48;5.97;;;3.22;;
72132;SDS011;60008;50.826;6.896;2023-12-20T00:22:38;6.32;;;3.20;;
72132;SDS011;60008;50.826;6.896;2023-12-20T00:25:24;7.70;;;3.53;;
72132;SDS011;60008;50.826;6.896;2023-12-20T00:28:12;6.03;;;3.08;;
72132;SDS011;60008;50.826;6.896;2023-12-20T00:31:01;6.70;;;3.38;;
72132;SDS011;60008;50.826;6.896;2023-12-20T00:33:47;7.05;;;3.10;;
72132;SDS011;60008;50.826;6.896;2023-12-20T00:36:32;6.72;;;3.38;;
72132;SDS011;60008;50.826;6.896;2023-12-20T00:39:18;7.40;;;3.47;;
72132;SDS011;60008;50.826;6.896;2023-12-20T00:42:04;6.90;;;3.30;;
72132;SDS011;60008;50.826;6.896;2023-12-20T00:44:49;6.32;;;2.72;;
72132;SDS011;60008;50.826;6.896;2023-12-20T00:47:35;5.43;;;2.88;;
72132;SDS011;60008;50.826;6.896;2023-12-20T00:50:21;6.25;;;3.03;;
72132;SDS011;60008;50.826;6.896;2023-12-20T00:53:07;8.73;;;3.47;;
72132;SDS011;60008;50.826;6.896;2023-12-20T00:56:01;7.43;;;3.70;;
72132;SDS011;60008;50.826;6.896;2023-12-20T00:58:46;8.48;;;3.10;;
72132;SDS011;60008;50.826;6.896;2023-12-20T01:01:32;7.78;;;3.35;;
72132;SDS011;60008;50.826;6.896;2023-12-20T01:04:18;8.55;;;4.10;;
72132;SDS011;60008;50.826;6.896;2023-12-20T01:07:03;8.67;;;4.00;;
72132;SDS011;60008;50.826;6.896;2023-12-20T01:09:51;10.05;;;4.63;;
72132;SDS011;60008;50.826;6.896;2023-12-20T01:12:39;10.25;;;4.75;;
72132;SDS011;60008;50.826;6.896;2023-12-20T01:15:24;9.93;;;5.00;;
72132;SDS011;60008;50.826;6.896;2023-12-20T01:18:16;9.95;;;4.80;;
72132;SDS011;60008;50.826;6.896;2023-12-20T01:21:02;11.70;;;5.00;;
72132;SDS011;60008;50.826;6.896;2023-12-20T01:23:50;11.10;;;4.82;;
72132;SDS011;60008;50.826;6.896;2023-12-20T01:26:35;11.43;;;4.93;;
72132;SDS011;60008;50.826;6.896;2023-12-20T01:29:21;9.43;;;4.93;;
72132;SDS011;60008;50.826;6.896;2023-12-20T01:32:06;13.38;;;4.63;;
72132;SDS011;60008;50.826;6.896;2023-12-20T01:34:51;10.53;;;5.07;;
72132;SDS011;60008;50.826;6.896;2023-12-20T01:37:43;13.00;;;4.68;;
72132;SDS011;60008;50.826;6.896;2023-12-20T01:40:28;13.85;;;4.32;;
72132;SDS011;60008;50.826;6.896;2023-12-20T01:43:23;11.40;;;4.95;;
72132;SDS011;60008;50.826;6.896;2023-12-20T01:46:12;11.48;;;4.97;;
72132;SDS011;60008;50.826;6.896;2023-12-20T01:49:00;12.97;;;4.87;;
72132;SDS011;60008;50.826;6.896;2023-12-20T01:51:45;9.30;;;4.43;;
72132;SDS011;60008;50.826;6.896;2023-12-20T01:54:31;11.57;;;5.28;;
72132;SDS011;60008;50.826;6.896;2023-12-20T01:57:17;14.05;;;6.20;;
72132;SDS011;60008;50.826;6.896;2023-12-20T02:00:06;11.02;;;4.90;;
72132;SDS011;60008;50.826;6.896;2023-12-20T02:02:54;7.87;;;3.27;;
72132;SDS011;60008;50.826;6.896;2023-12-20T02:05:40;10.75;;;3.97;;
72132;SDS011;60008;50.826;6.896;2023-12-20T02:08:32;8.77;;;3.25;;
72132;SDS011;60008;50.826;6.896;2023-12-20T02:11:19;9.13;;;3.45;;
72132;SDS011;60008;50.826;6.896;2023-12-20T02:14:04;8.85;;;2.85;;
72132;SDS011;60008;50.826;6.896;2023-12-20T02:16:50;9.27;;;2.33;;
72132;SDS011;60008;50.826;6.896;2023-12-20T02:19:35;9.88;;;2.67;;
72132;SDS011;60008;50.826;6.896;2023-12-20T02:22:20;7.45;;;1.75;;
72132;SDS011;60008;50.826;6.896;2023-12-20T02:25:06;3.33;;;1.73;;
72132;SDS011;60008;50.826;6.896;2023-12-20T02:27:52;7.90;;;2.40;;
72132;SDS011;60008;50.826;6.896;2023-12-20T02:30:38;5.93;;;1.40;;
72132;SDS011;60008;50.826;6.896;2023-12-20T02:33:23;8.63;;;1.20;;
72132;SDS011;60008;50.826;6.896;2023-12-20T02:36:17;10.02;;;1.30;;
72132;SDS011;60008;50.826;6.896;2023-12-20T02:39:03;5.90;;;1.10;;
72132;SDS011;60008;50.826;6.896;2023-12-20T02:41:49;9.82;;;0.90;;
72132;SDS011;60008;50.826;6.896;2023-12-20T02:44:34;5.10;;;1.20;;
72132;SDS011;60008;50.826;6.896;2023-12-20T02:47:19;9.02;;;1.30;;
72132;SDS011;60008;50.826;6.896;2023-12-20T02:50:07;6.57;;;1.25;;
72132;SDS011;60008;50.826;6.896;2023-12-20T02:52:58;7.93;;;1.42;;
72132;SDS011;60008;50.826;6.896;2023-12-20T02:55:43;8.00;;;1.15;;
72132;SDS011;60008;50.826;6.896;2023-12-20T02:58:31;7.73;;;1.17;;
72132;SDS011;60008;50.826;6.896;2023-12-20T03:01:17;10.18;;;1.27;;
72132;SDS011;60008;50.826;6.896;2023-12-20T03:04:02;5.70;;;0.98;;
72132;SDS011;60008;50.826;6.896;2023-12-20T03:06:47;5.72;;;1.00;;
72132;SDS011;60008;50.826;6.896;2023-12-20T03:09:32;8.63;;;0.95;;
72132;SDS011;60008;50.826;6.896;2023-12-20T03:12:37;8.27;;;1.17;;
72132;SDS011;60008;50.826;6.896;2023-12-20T03:15:22;4.45;;;0.90;;
72132;SDS011;60008;50.826;6.896;2023-12-20T03:18:07;5.10;;;0.82;;
72132;SDS011;60008;50.826;6.896;2023-12-20T03:20:53;9.52;;;1.02;;
72132;SDS011;60008;50.826;6.896;2023-12-20T03:23:38;14.80;;;1.35;;
72132;SDS011;60008;50.826;6.896;2023-12-20T03:26:23;8.83;;;1.10;;
72132;SDS011;60008;50.826;6.896;2023-12-20T03:29:09;7.78;;;1.15;;
72132;SDS011;60008;50.826;6.896;2023-12-20T03:31:54;7.25;;;1.27;;
72132;SDS011;60008;50.826;6.896;2023-12-20T03:34:42;10.20;;;1.30;;
72132;SDS011;60008;50.826;6.896;2023-12-20T03:37:28;9.90;;;1.38;;
72132;SDS011;60008;50.826;6.896;2023-12-20T03:40:16;6.77;;;1.30;;
72132;SDS011;60008;50.826;6.896;2023-12-20T03:43:04;6.68;;;1.75;;
72132;SDS011;60008;50.826;6.896;2023-12-20T03:45:49;7.78;;;1.73;;
72132;SDS011;60008;50.826;6.896;2023-12-20T03:48:35;6.20;;;1.10;;
72132;SDS011;60008;50.826;6.896;2023-12-20T03:51:22;9.27;;;1.45;;
72132;SDS011;60008;50.826;6.896;2023-12-20T03:54:07;12.57;;;1.50;;
72132;SDS011;60008;50.826;6.896;2023-12-20T03:56:54;7.55;;;1.27;;
72132;SDS011;60008;50.826;6.896;2023-12-20T03:59:39;5.45;;;1.20;;
72132;SDS011;60008;50.826;6.896;2023-12-20T04:02:25;6.93;;;1.27;;
72132;SDS011;60008;50.826;6.896;2023-12-20T04:05:11;7.70;;;2.00;;
72132;SDS011;60008;50.826;6.896;2023-12-20T04:08:05;7.87;;;1.50;;
72132;SDS011;60008;50.826;6.896;2023-12-20T04:10:50;7.47;;;1.67;;
72132;SDS011;60008;50.826;6.896;2023-12-20T04:13:36;10.30;;;1.60;;
72132;SDS011;60008;50.826;6.896;2023-12-20T04:16:22;7.68;;;1.27;;
72132;SDS011;60008;50.826;6.896;2023-12-20T04:19:07;16.15;;;1.60;;
72132;SDS011;60008;50.826;6.896;2023-12-20T04:21:59;10.13;;;1.63;;
72132;SDS011;60008;50.826;6.896;2023-12-20T04:24:44;9.55;;;1.60;;
72132;SDS011;60008;50.826;6.896;2023-12-20T04:27:30;10.65;;;2.17;;
72132;SDS011;60008;50.826;6.896;2023-12-20T04:30:15;7.15;;;1.92;;
72132;SDS011;60008;50.826;6.896;2023-12-20T04:33:03;8.85;;;1.38;;
72132;SDS011;60008;50.826;6.896;2023-12-20T04:36:02;14.40;;;2.00;;
72132;SDS011;60008;50.826;6.896;2023-12-20T04:38:48;11.23;;;2.10;;
72132;SDS011;60008;50.826;6.896;2023-12-20T04:41:33;11.10;;;2.08;;
72132;SDS011;60008;50.826;6.896;2023-12-20T04:44:18;6.57;;;1.73;;
72132;SDS011;60008;50.826;6.896;2023-12-20T04:47:03;10.57;;;2.20;;
72132;SDS011;60008;50.826;6.896;2023-12-20T04:49:49;10.27;;;1.93;;
72132;SDS011;60008;50.826;6.896;2023-12-20T04:52:34;6.85;;;1.55;;
72132;SDS011;60008;50.826;6.896;2023-12-20T04:55:19;9.35;;;1.75;;
72132;SDS011;60008;50.826;6.896;2023-12-20T04:58:05;10.82;;;1.80;;
72132;SDS011;60008;50.826;6.896;2023-12-20T05:00:50;7.03;;;1.55;;
72132;SDS011;60008;50.826;6.896;2023-12-20T05:03:35;9.60;;;1.63;;
72132;SDS011;60008;50.826;6.896;2023-12-20T05:06:21;9.27;;;2.33;;
72132;SDS011;60008;50.826;6.896;2023-12-20T05:09:06;8.88;;;2.00;;
72132;SDS011;60008;50.826;6.896;2023-12-20T05:11:52;7.15;;;1.60;;
72132;SDS011;60008;50.826;6.896;2023-12-20T05:14:37;7.10;;;1.67;;
72132;SDS011;60008;50.826;6.896;2023-12-20T05:17:23;10.87;;;1.90;;
72132;SDS011;60008;50.826;6.896;2023-12-20T05:20:08;4.55;;;1.73;;
72132;SDS011;60008;50.826;6.896;2023-12-20T05:23:01;12.13;;;2.30;;
72132;SDS011;60008;50.826;6.896;2023-12-20T05:25:46;12.50;;;2.75;;
72132;SDS011;60008;50.826;6.896;2023-12-20T05:28:31;9.82;;;2.35;;
72132;SDS011;60008;50.826;6.896;2023-12-20T05:31:16;7.50;;;1.57;;
72132;SDS011;60008;50.826;6.896;2023-12-20T05:34:02;11.07;;;4.10;;
72132;SDS011;60008;50.826;6.896;2023-12-20T05:36:50;11.20;;;2.10;;
72132;SDS011;60008;50.826;6.896;2023-12-20T05:39:37;16.40;;;2.55;;
72132;SDS011;60008;50.826;6.896;2023-12-20T05:42:23;10.40;;;2.28;;
72132;SDS011;60008;50.826;6.896;2023-12-20T05:45:09;9.20;;;2.20;;
72132;SDS011;60008;50.826;6.896;2023-12-20T05:47:58;7.95;;;2.05;;
72132;SDS011;60008;50.826;6.896;2023-12-20T05:50:43;11.90;;;1.95;;
72132;SDS011;60008;50.826;6.896;2023-12-20T05:53:29;4.75;;;0.80;;
72132;SDS011;60008;50.826;6.896;2023-12-20T05:56:20;10.40;;;2.15;;
72132;SDS011;60008;50.826;6.896;2023-12-20T05:59:05;11.67;;;2.13;;
72132;SDS011;60008;50.826;6.896;2023-12-20T06:01:50;9.05;;;2.00;;
72132;SDS011;60008;50.826;6.896;2023-12-20T06:04:36;9.65;;;1.70;;
72132;SDS011;60008;50.826;6.896;2023-12-20T06:07:21;11.18;;;1.77;;
72132;SDS011;60008;50.826;6.896;2023-12-20T06:10:07;7.53;;;1.70;;
72132;SDS011;60008;50.826;6.896;2023-12-20T06:12:52;8.97;;;2.70;;
72132;SDS011;60008;50.826;6.896;2023-12-20T06:15:37;12.35;;;2.10;;
72132;SDS011;60008;50.826;6.896;2023-12-20T06:18:23;16.75;;;2.50;;
72132;SDS011;60008;50.826;6.896;2023-12-20T06:21:09;16.25;;;2.38;;
72132;SDS011;60008;50.826;6.896;2023-12-20T06:24:03;12.30;;;1.67;;
72132;SDS011;60008;50.826;6.896;2023-12-20T06:26:49;8.47;;;1.80;;
72132;SDS011;60008;50.826;6.896;2023-12-20T06:29:36;16.58;;;2.60;;
72132;SDS011;60008;50.826;6.896;2023-12-20T06:32:22;9.75;;;2.05;;
72132;SDS011;60008;50.826;6.896;2023-12-20T06:35:08;16.48;;;2.30;;
72132;SDS011;60008;50.826;6.896;2023-12-20T06:37:54;11.20;;;2.33;;
72132;SDS011;60008;50.826;6.896;2023-12-20T06:40:39;13.23;;;2.17;;
72132;SDS011;60008;50.826;6.896;2023-12-20T06:43:25;12.30;;;2.50;;
72132;SDS011;60008;50.826;6.896;2023-12-20T06:46:30;10.27;;;2.20;;
72132;SDS011;60008;50.826;6.896;2023-12-20T06:49:18;11.45;;;2.00;;
72132;SDS011;60008;50.826;6.896;2023-12-20T06:52:04;13.25;;;2.22;;
72132;SDS011;60008;50.826;6.896;2023-12-20T06:54:49;8.67;;;1.70;;
72132;SDS011;60008;50.826;6.896;2023-12-20T06:57:35;5.80;;;1.05;;
72132;SDS011;60008;50.826;6.896;2023-12-20T07:00:21;13.52;;;1.83;;
72132;SDS011;60008;50.826;6.896;2023-12-20T07:03:16;6.32;;;1.42;;
72132;SDS011;60008;50.826;6.896;2023-12-20T07:06:07;8.57;;;1.70;;
72132;SDS011;60008;50.826;6.896;2023-12-20T07:08:52;5.77;;;0.80;;
72132;SDS011;60008;50.826;6.896;2023-12-20T07:11:38;16.73;;;1.75;;
72132;SDS011;60008;50.826;6.896;2023-12-20T07:14:23;6.30;;;2.08;;
72132;SDS011;60008;50.826;6.896;2023-12-20T07:17:09;9.50;;;1.90;;
72132;SDS011;60008;50.826;6.896;2023-12-20T07:19:58;6.47;;;1.27;;
72132;SDS011;60008;50.826;6.896;2023-12-20T07:22:44;8.83;;;2.17;;
72132;SDS011;60008;50.826;6.896;2023-12-20T07:25:29;6.85;;;1.60;;
72132;SDS011;60008;50.826;6.896;2023-12-20T07:28:17;14.23;;;2.08;;
72132;SDS011;60008;50.826;6.896;2023-12-20T07:31:04;10.82;;;1.90;;
72132;SDS011;60008;50.826;6.896;2023-12-20T07:33:49;8.57;;;1.80;;
72132;SDS011;60008;50.826;6.896;2023-12-20T07:36:35;6.90;;;1.20;;
72132;SDS011;60008;50.826;6.896;2023-12-20T07:39:23;8.10;;;1.88;;
72132;SDS011;60008;50.826;6.896;2023-12-20T07:42:18;13.93;;;2.38;;
72132;SDS011;60008;50.826;6.896;2023-12-20T07:45:07;10.82;;;1.98;;
72132;SDS011;60008;50.826;6.896;2023-12-20T07:47:52;11.70;;;1.67;;
72132;SDS011;60008;50.826;6.896;2023-12-20T07:50:38;9.70;;;2.00;;
72132;SDS011;60008;50.826;6.896;2023-12-20T07:53:23;5.70;;;1.40;;
72132;SDS011;60008;50.826;6.896;2023-12-20T07:56:18;9.10;;;1.67;;
72132;SDS011;60008;50.826;6.896;2023-12-20T07:59:31;12.25;;;1.88;;
72132;SDS011;60008;50.826;6.896;2023-12-20T08:02:19;11.10;;;1.95;;
72132;SDS011;60008;50.826;6.896;2023-12-20T08:05:06;10.90;;;2.27;;
72132;SDS011;60008;50.826;6.896;2023-12-20T08:07:54;12.15;;;2.03;;
72132;SDS011;60008;50.826;6.896;2023-12-20T08:10:40;6.97;;;1.10;;
72132;SDS011;60008;50.826;6.896;2023-12-20T08:13:29;11.15;;;1.70;;
72132;SDS011;60008;50.826;6.896;2023-12-20T08:16:18;7.40;;;2.15;;
72132;SDS011;60008;50.826;6.896;2023-12-20T08:19:06;12.67;;;2.50;;
72132;SDS011;60008;50.826;6.896;2023-12-20T08:21:57;14.73;;;2.35;;
72132;SDS011;60008;50.826;6.896;2023-12-20T08:24:42;10.23;;;2.25;;
72132;SDS011;60008;50.826;6.896;2023-12-20T08:27:27;10.60;;;2.25;;
72132;SDS011;60008;50.826;6.896;2023-12-20T08:30:15;19.25;;;2.33;;
72132;SDS011;60008;50.826;6.896;2023-12-20T08:33:06;12.47;;;2.27;;
72132;SDS011;60008;50.826;6.896;2023-12-20T08:35:58;8.38;;;2.25;;
72132;SDS011;60008;50.826;6.896;2023-12-20T08:38:44;12.20;;;1.90;;
72132;SDS011;60008;50.826;6.896;2023-12-20T08:41:29;13.57;;;2.63;;
72132;SDS011;60008;50.826;6.896;2023-12-20T08:44:14;4.45;;;1.60;;
72132;SDS011;60008;50.826;6.896;2023-12-20T08:47:00;9.57;;;1.93;;
72132;SDS011;60008;50.826;6.896;2023-12-20T08:49:45;6.47;;;1.50;;
72132;SDS011;60008;50.826;6.896;2023-12-20T08:52:31;7.65;;;1.73;;
72132;SDS011;60008;50.826;6.896;2023-12-20T08:55:18;10.50;;;1.85;;
72132;SDS011;60008;50.826;6.896;2023-12-20T08:58:07;9.98;;;1.90;;
72132;SDS011;60008;50.826;6.896;2023-12-20T09:00:54;12.17;;;2.20;;
72132;SDS011;60008;50.826;6.896;2023-12-20T09:03:42;15.25;;;1.70;;
72132;SDS011;60008;50.826;6.896;2023-12-20T09:06:28;2.70;;;0.88;;
72132;SDS011;60008;50.826;6.896;2023-12-20T09:09:14;13.30;;;2.25;;
72132;SDS011;60008;50.826;6.896;2023-12-20T09:12:11;4.47;;;1.05;;
72132;SDS011;60008;50.826;6.896;2023-12-20T09:14:58;12.63;;;2.03;;
72132;SDS011;60008;50.826;6.896;2023-12-20T09:17:44;1.75;;;0.55;;
72132;SDS011;60008;50.826;6.896;2023-12-20T09:20:30;9.40;;;2.08;;
72132;SDS011;60008;50.826;6.896;2023-12-20T09:23:15;4.55;;;1.60;;
72132;SDS011;60008;50.826;6.896;2023-12-20T09:26:06;10.88;;;1.73;;
72132;SDS011;60008;50.826;6.896;2023-12-20T09:28:51;8.47;;;1.60;;
72132;SDS011;60008;50.826;6.896;2023-12-20T09:31:37;9.25;;;1.77;;
72132;SDS011;60008;50.826;6.896;2023-12-20T09:34:22;13.35;;;2.17;;
72132;SDS011;60008;50.826;6.896;2023-12-20T09:37:08;6.95;;;1.17;;
72132;SDS011;60008;50.826;6.896;2023-12-20T09:39:53;9.75;;;1.20;;
72132;SDS011;60008;50.826;6.896;2023-12-20T09:42:48;8.23;;;1.83;;
72132;SDS011;60008;50.826;6.896;2023-12-20T09:45:39;13.35;;;1.98;;
72132;SDS011;60008;50.826;6.896;2023-12-20T09:48:25;7.75;;;1.38;;
72132;SDS011;60008;50.826;6.896;2023-12-20T09:51:15;5.38;;;1.88;;
72132;SDS011;60008;50.826;6.896;2023-12-20T09:54:10;8.07;;;1.15;;
72132;SDS011;60008;50.826;6.896;2023-12-20T09:56:55;10.63;;;2.23;;
72132;SDS011;60008;50.826;6.896;2023-12-20T09:59:43;11.75;;;1.83;;
72132;SDS011;60008;50.826;6.896;2023-12-20T10:02:28;15.25;;;1.95;;
72132;SDS011;60008;50.826;6.896;2023-12-20T10:05:15;7.90;;;1.55;;
72132;SDS011;60008;50.826;6.896;2023-12-20T10:08:08;11.05;;;1.60;;
72132;SDS011;60008;50.826;6.896;2023-12-20T10:10:53;9.53;;;2.03;;
72132;SDS011;60008;50.826;6.896;2023-12-20T10:13:39;7.53;;;1.42;;
72132;SDS011;60008;50.826;6.896;2023-12-20T10:16:26;7.97;;;1.95;;
72132;SDS011;60008;50.826;6.896;2023-12-20T10:19:16;5.10;;;1.17;;
72132;SDS011;60008;50.826;6.896;2023-12-20T10:22:07;11.70;;;1.52;;
72132;SDS011;60008;50.826;6.896;2023-12-20T10:24:56;7.13;;;1.50;;
72132;SDS011;60008;50.826;6.896;2023-12-20T10:28:08;7.63;;;1.40;;
72132;SDS011;60008;50.826;6.896;2023-12-20T10:31:27;8.07;;;1.45;;
72132;SDS011;60008;50.826;6.896;2023-12-20T10:34:18;9.55;;;1.40;;
72132;SDS011;60008;50.826;6.896;2023-12-20T10:37:16;7.82;;;1.63;;
72132;SDS011;60008;50.826;6.896;2023-12-20T10:40:09;5.20;;;1.33;;
72132;SDS011;60008;50.826;6.896;2023-12-20T10:42:55;8.90;;;1.73;;
72132;SDS011;60008;50.826;6.896;2023-12-20T10:45:41;6.40;;;0.82;;
72132;SDS011;60008;50.826;6.896;2023-12-20T10:48:29;6.97;;;1.35;;
72132;SDS011;60008;50.826;6.896;2023-12-20T10:51:17;5.22;;;1.33;;
72132;SDS011;60008;50.826;6.896;2023-12-20T10:54:09;4.53;;;1.07;;
72132;SDS011;60008;50.826;6.896;2023-12-20T10:56:57;9.93;;;1.20;;
72132;SDS011;60008;50.826;6.896;2023-12-20T10:59:43;13.65;;;1.80;;
72132;SDS011;60008;50.826;6.896;2023-12-20T11:02:36;6.70;;;1.45;;
72132;SDS011;60008;50.826;6.896;2023-12-20T11:08:44;6.23;;;1.03;;
72132;SDS011;60008;50.826;6.896;2023-12-20T11:14:57;6.35;;;1.13;;
72132;SDS011;60008;50.826;6.896;2023-12-20T11:17:56;7.13;;;1.60;;
72132;SDS011;60008;50.826;6.896;2023-12-20T11:20:44;9.45;;;2.08;;
72132;SDS011;60008;50.826;6.896;2023-12-20T11:23:30;11.93;;;1.97;;
72132;SDS011;60008;50.826;6.896;2023-12-20T11:26:22;7.40;;;1.90;;
72132;SDS011;60008;50.826;6.896;2023-12-20T11:29:57;10.90;;;2.00;;
72132;SDS011;60008;50.826;6.896;2023-12-20T11:37:57;2.67;;;1.00;;
72132;SDS011;60008;50.826;6.896;2023-12-20T11:40:43;4.13;;;1.05;;
72132;SDS011;60008;50.826;6.896;2023-12-20T11:43:32;6.50;;;1.52;;
72132;SDS011;60008;50.826;6.896;2023-12-20T11:46:20;11.52;;;1.40;;
72132;SDS011;60008;50.826;6.896;2023-12-20T11:49:11;8.55;;;1.63;;
72132;SDS011;60008;50.826;6.896;2023-12-20T11:51:56;7.37;;;1.50;;
72132;SDS011;60008;50.826;6.896;2023-12-20T11:54:46;10.07;;;1.92;;
72132;SDS011;60008;50.826;6.896;2023-12-20T11:57:35;3.42;;;1.00;;
72132;SDS011;60008;50.826;6.896;2023-12-20T12:00:30;6.03;;;1.50;;
72132;SDS011;60008;50.826;6.896;2023-12-20T12:03:16;7.28;;;1.13;;
72132;SDS011;60008;50.826;6.896;2023-12-20T12:06:01;6.83;;;1.73;;
72132;SDS011;60008;50.826;6.896;2023-12-20T12:08:49;7.78;;;1.52;;
72132;SDS011;60008;50.826;6.896;2023-12-20T12:11:35;7.95;;;1.48;;
72132;SDS011;60008;50.826;6.896;2023-12-20T12:14:21;11.98;;;1.90;;
72132;SDS011;60008;50.826;6.896;2023-12-20T12:17:13;7.65;;;1.58;;
72132;SDS011;60008;50.826;6.896;2023-12-20T12:20:05;8.63;;;1.80;;
72132;SDS011;60008;50.826;6.896;2023-12-20T12:23:00;5.63;;;1.25;;
72132;SDS011;60008;50.826;6.896;2023-12-20T12:25:47;8.63;;;1.73;;
72132;SDS011;60008;50.826;6.896;2023-12-20T12:28:34;3.75;;;0.90;;
72132;SDS011;60008;50.826;6.896;2023-12-20T12:31:41;11.05;;;1.73;;
72132;SDS011;60008;50.826;6.896;2023-12-20T12:34:29;9.83;;;1.60;;
72132;SDS011;60008;50.826;6.896;2023-12-20T12:37:14;9.18;;;1.65;;
72132;SDS011;60008;50.826;6.896;2023-12-20T12:40:05;10.73;;;1.60;;
72132;SDS011;60008;50.826;6.896;2023-12-20T12:46:18;6.45;;;1.05;;
72132;SDS011;60008;50.826;6.896;2023-12-20T12:49:09;5.70;;;1.33;;
72132;SDS011;60008;50.826;6.896;2023-12-20T12:51:55;11.70;;;2.47;;
72132;SDS011;60008;50.826;6.896;2023-12-20T12:54:43;6.57;;;1.70;;
72132;SDS011;60008;50.826;6.896;2023-12-20T12:57:29;10.38;;;1.90;;
72132;SDS011;60008;50.826;6.896;2023-12-20T13:00:16;9.93;;;2.30;;
72132;SDS011;60008;50.826;6.896;2023-12-20T13:03:15;4.87;;;2.03;;
72132;SDS011;60008;50.826;6.896;2023-12-20T13:06:01;4.10;;;1.65;;
72132;SDS011;60008;50.826;6.896;2023-12-20T13:08:47;4.20;;;1.10;;
72132;SDS011;60008;50.826;6.896;2023-12-20T13:11:32;12.25;;;1.73;;
72132;SDS011;60008;50.826;6.896;2023-12-20T13:14:29;7.38;;;2.00;;
72132;SDS011;60008;50.826;6.896;2023-12-20T13:17:14;8.50;;;2.10;;
72132;SDS011;60008;50.826;6.896;2023-12-20T13:20:05;9.60;;;2.00;;
72132;SDS011;60008;50.826;6.896;2023-12-20T13:22:52;8.98;;;1.83;;
72132;SDS011;60008;50.826;6.896;2023-12-20T13:25:39;11.02;;;1.60;;
72132;SDS011;60008;50.826;6.896;2023-12-20T13:28:29;8.85;;;1.80;;
72132;SDS011;60008;50.826;6.896;2023-12-20T13:31:14;15.87;;;2.33;;
72132;SDS011;60008;50.826;6.896;2023-12-20T13:34:05;12.60;;;2.60;;
72132;SDS011;60008;50.826;6.896;2023-12-20T13:36:53;10.32;;;1.88;;
72132;SDS011;60008;50.826;6.896;2023-12-20T13:39:39;3.10;;;1.15;;
72132;SDS011;60008;50.826;6.896;2023-12-20T13:42:25;15.50;;;2.45;;
72132;SDS011;60008;50.826;6.896;2023-12-20T13:45:13;11.60;;;3.03;;
72132;SDS011;60008;50.826;6.896;2023-12-20T13:48:08;7.88;;;2.15;;
72132;SDS011;60008;50.826;6.896;2023-12-20T13:50:59;7.70;;;2.03;;
72132;SDS011;60008;50.826;6.896;2023-12-20T13:53:46;9.27;;;1.88;;
72132;SDS011;60008;50.826;6.896;2023-12-20T13:56:40;9.10;;;1.90;;
72132;SDS011;60008;50.826;6.896;2023-12-20T13:59:44;10.00;;;2.03;;
72132;SDS011;60008;50.826;6.896;2023-12-20T14:02:30;8.10;;;1.50;;
72132;SDS011;60008;50.826;6.896;2023-12-20T14:05:16;5.05;;;1.35;;
72132;SDS011;60008;50.826;6.896;2023-12-20T14:08:03;6.05;;;2.00;;
72132;SDS011;60008;50.826;6.896;2023-12-20T14:10:50;8.40;;;1.70;;
72132;SDS011;60008;50.826;6.896;2023-12-20T14:13:35;5.07;;;1.37;;
72132;SDS011;60008;50.826;6.896;2023-12-20T14:16:25;7.55;;;1.88;;
72132;SDS011;60008;50.826;6.896;2023-12-20T14:19:17;8.98;;;1.67;;
72132;SDS011;60008;50.826;6.896;2023-12-20T14:22:10;6.25;;;1.33;;
72132;SDS011;60008;50.826;6.896;2023-12-20T14:24:56;4.57;;;0.95;;
72132;SDS011;60008;50.826;6.896;2023-12-20T14:27:42;10.83;;;1.83;;
72132;SDS011;60008;50.826;6.896;2023-12-20T14:30:32;6.85;;;1.75;;
72132;SDS011;60008;50.826;6.896;2023-12-20T14:33:41;6.35;;;1.13;;
72132;SDS011;60008;50.826;6.896;2023-12-20T14:36:31;6.63;;;0.93;;
72132;SDS011;60008;50.826;6.896;2023-12-20T14:39:19;9.57;;;1.55;;
72132;SDS011;60008;50.826;6.896;2023-12-20T14:42:13;6.70;;;1.27;;
72132;SDS011;60008;50.826;6.896;2023-12-20T14:44:59;12.93;;;2.35;;
72132;SDS011;60008;50.826;6.896;2023-12-20T14:47:54;8.07;;;1.27;;
72132;SDS011;60008;50.826;6.896;2023-12-20T14:50:40;5.90;;;1.33;;
72132;SDS011;60008;50.826;6.896;2023-12-20T14:53:26;7.90;;;1.15;;
72132;SDS011;60008;50.826;6.896;2023-12-20T14:56:18;6.47;;;1.10;;
72132;SDS011;60008;50.826;6.896;2023-12-20T14:59:05;6.03;;;1.45;;
72132;SDS011;60008;50.826;6.896;2023-12-20T15:01:53;3.78;;;1.30;;
72132;SDS011;60008;50.826;6.896;2023-12-20T15:04:38;8.13;;;1.50;;
72132;SDS011;60008;50.826;6.896;2023-12-20T15:07:30;3.95;;;0.80;;
72132;SDS011;60008;50.826;6.896;2023-12-20T15:10:16;8.03;;;1.37;;
72132;SDS011;60008;50.826;6.896;2023-12-20T15:13:04;6.68;;;1.20;;
72132;SDS011;60008;50.826;6.896;2023-12-20T15:15:51;6.63;;;1.55;;
72132;SDS011;60008;50.826;6.896;2023-12-20T15:18:40;6.28;;;1.73;;
72132;SDS011;60008;50.826;6.896;2023-12-20T15:21:29;8.43;;;1.70;;
72132;SDS011;60008;50.826;6.896;2023-12-20T15:24:17;3.87;;;1.30;;
72132;SDS011;60008;50.826;6.896;2023-12-20T15:27:13;8.75;;;1.50;;
72132;SDS011;60008;50.826;6.896;2023-12-20T15:29:58;7.53;;;1.85;;
72132;SDS011;60008;50.826;6.896;2023-12-20T15:32:48;9.18;;;2.08;;
72132;SDS011;60008;50.826;6.896;2023-12-20T15:35:36;7.25;;;1.90;;
72132;SDS011;60008;50.826;6.896;2023-12-20T15:38:21;10.03;;;2.00;;
72132;SDS011;60008;50.826;6.896;2023-12-20T15:41:07;9.90;;;1.70;;
72132;SDS011;60008;50.826;6.896;2023-12-20T15:43:53;6.35;;;1.92;;
72132;SDS011;60008;50.826;6.896;2023-12-20T15:46:39;11.52;;;2.10;;
72132;SDS011;60008;50.826;6.896;2023-12-20T15:49:33;5.32;;;1.35;;
72132;SDS011;60008;50.826;6.896;2023-12-20T15:52:18;7.17;;;2.17;;
72132;SDS011;60008;50.826;6.896;2023-12-20T15:55:04;10.27;;;2.08;;
72132;SDS011;60008;50.826;6.896;2023-12-20T15:57:49;9.25;;;2.00;;
72132;SDS011;60008;50.826;6.896;2023-12-20T16:00:39;6.20;;;2.08;;
72132;SDS011;60008;50.826;6.896;2023-12-20T16:03:29;7.05;;;1.33;;
72132;SDS011;60008;50.826;6.896;2023-12-20T16:06:24;8.73;;;2.27;;
72132;SDS011;60008;50.826;6.896;2023-12-20T16:09:15;4.82;;;1.42;;
72132;SDS011;60008;50.826;6.896;2023-12-20T16:12:00;4.65;;;1.67;;
72132;SDS011;60008;50.826;6.896;2023-12-20T16:14:46;10.75;;;2.03;;
72132;SDS011;60008;50.826;6.896;2023-12-20T16:17:31;6.18;;;2.00;;
72132;SDS011;60008;50.826;6.896;2023-12-20T16:20:18;4.27;;;1.10;;
72132;SDS011;60008;50.826;6.896;2023-12-20T16:23:04;4.38;;;1.20;;
72132;SDS011;60008;50.826;6.896;2023-12-20T16:25:49;6.43;;;2.08;;
72132;SDS011;60008;50.826;6.896;2023-12-20T16:28:34;5.93;;;1.73;;
72132;SDS011;60008;50.826;6.896;2023-12-20T16:31:20;7.05;;;1.65;;
72132;SDS011;60008;50.826;6.896;2023-12-20T16:34:05;14.00;;;2.27;;
72132;SDS011;60008;50.826;6.896;2023-12-20T16:36:54;8.35;;;2.05;;
72132;SDS011;60008;50.826;6.896;2023-12-20T16:39:42;9.85;;;2.38;;
72132;SDS011;60008;50.826;6.896;2023-12-20T16:42:34;6.20;;;1.95;;
72132;SDS011;60008;50.826;6.896;2023-12-20T16:45:19;7.60;;;2.22;;
72132;SDS011;60008;50.826;6.896;2023-12-20T16:48:05;6.67;;;1.90;;
72132;SDS011;60008;50.826;6.896;2023-12-20T16:50:53;10.40;;;2.58;;
72132;SDS011;60008;50.826;6.896;2023-12-20T16:53:42;9.63;;;2.00;;
72132;SDS011;60008;50.826;6.896;2023-12-20T16:56:30;7.32;;;2.03;;
72132;SDS011;60008;50.826;6.896;2023-12-20T16:59:15;8.30;;;2.25;;
72132;SDS011;60008;50.826;6.896;2023-12-20T17:02:02;9.53;;;2.33;;